Time;durP1;ratioP1;P1;durP2;ratioP2;P2;SDS_P1;SDS_P2;PMS_P1;PMS_P2;Temp;Humidity;BMP_temperature;BMP_pressure;BME280_temperature;BME280_humidity;BME280_pressure;Samples;Min_cycle;Max_cycle;Signal;HPM_P1;HPM_P2
2023/12/12 00:00:42;;;;;;;;;;;9.10;99.90;;;;;;5062924;28;19979;-67
2023/12/12 00:03:09;;;;;;;;;;;9.10;99.90;;;;;;5062999;28;19987;-66
2023/12/12 00:05:37;;;;;;;;;;;9.10;99.90;;;;;;5064367;28;20460;-68
2023/12/12 00:08:03;;;;;;;;;;;9.10;99.90;;;;;;5065764;28;19983;-67
2023/12/12 00:10:30;;;;;;;;;;;9.10;99.90;;;;;;5063675;28;19983;-67
2023/12/12 00:12:56;;;;;;;;;;;9.10;99.90;;;;;;5063639;28;19983;-67
2023/12/12 00:15:23;;;;;;;;;;;9.10;99.90;;;;;;5059509;28;19988;-68
2023/12/12 00:17:49;;;;;;;;;;;9.10;99.90;;;;;;5063249;28;20001;-66
2023/12/12 00:20:16;;;;;;;;;;;9.00;99.90;;;;;;5064418;28;19998;-68
2023/12/12 00:22:44;;;;;;;;;;;9.00;99.90;;;;;;5065806;28;20376;-68
2023/12/12 00:25:10;;;;;;;;;;;9.00;99.90;;;;;;5063499;28;19975;-67
2023/12/12 00:27:37;;;;;;;;;;;9.00;99.90;;;;;;5065275;28;19995;-67
2023/12/12 00:30:03;;;;;;;;;;;9.00;99.90;;;;;;5063066;28;19984;-67
2023/12/12 00:32:30;;;;;;;;;;;9.00;99.90;;;;;;5063647;28;20049;-68
2023/12/12 00:34:57;;;;;;;;;;;9.00;99.90;;;;;;5064228;28;19979;-68
2023/12/12 00:37:23;;;;;;;;;;;8.90;99.90;;;;;;5064413;28;20048;-68
2023/12/12 00:39:51;;;;;;;;;;;8.90;99.90;;;;;;5064344;28;20580;-67
2023/12/12 00:42:17;;;;;;;;;;;9.00;99.90;;;;;;5064618;28;20429;-67
2023/12/12 00:44:44;;;;;;;;;;;8.90;99.90;;;;;;5064237;28;19983;-68
2023/12/12 00:47:10;;;;;;;;;;;8.90;99.90;;;;;;5062909;28;19999;-67
2023/12/12 00:49:37;;;;;;;;;;;8.90;99.90;;;;;;5068930;28;20002;-68
2023/12/12 00:52:04;;;;;;;;;;;8.90;99.90;;;;;;5068205;28;19979;-67
2023/12/12 00:54:30;;;;;;;;;;;8.80;99.90;;;;;;5068021;28;19980;-67
2023/12/12 00:56:58;;;;;;;;;;;8.90;99.90;;;;;;5066643;28;19995;-68
2023/12/12 00:59:25;;;;;;;;;;;8.90;99.90;;;;;;5068402;28;20057;-67
2023/12/12 01:01:51;;;;;;;;;;;8.90;99.90;;;;;;5067004;28;20551;-68
2023/12/12 01:04:18;;;;;;;;;;;8.90;99.90;;;;;;5068350;28;20034;-67
2023/12/12 01:06:44;;;;;;;;;;;8.90;99.90;;;;;;5067233;28;19991;-67
2023/12/12 01:09:11;;;;;;;;;;;8.90;99.90;;;;;;5068384;28;19975;-69
2023/12/12 01:11:37;;;;;;;;;;;8.80;99.90;;;;;;5068166;28;19990;-67
2023/12/12 01:14:05;;;;;;;;;;;8.80;99.90;;;;;;5066520;28;20773;-69
2023/12/12 01:16:32;;;;;;;;;;;8.80;99.90;;;;;;5066077;28;20009;-67
2023/12/12 01:18:58;;;;;;;;;;;8.80;99.90;;;;;;5068460;28;20002;-67
2023/12/12 01:21:25;;;;;;;;;;;8.80;99.90;;;;;;5068287;28;19987;-67
2023/12/12 01:23:52;;;;;;;;;;;8.80;99.90;;;;;;5065469;28;19983;-67
2023/12/12 01:26:19;;;;;;;;;;;8.80;99.90;;;;;;5066114;28;19979;-66
2023/12/12 01:28:46;;;;;;;;;;;8.80;99.90;;;;;;5068150;28;19979;-67
2023/12/12 01:31:14;;;;;;;;;;;8.80;99.90;;;;;;5067358;28;19992;-68
2023/12/12 01:33:41;;;;;;;;;;;8.80;99.90;;;;;;5068131;28;19983;-66
2023/12/12 01:36:08;;;;;;;;;;;8.80;99.90;;;;;;5069155;28;19987;-66
2023/12/12 01:38:35;;;;;;;;;;;8.80;99.90;;;;;;5067742;28;20002;-67
2023/12/12 01:41:02;;;;;;;;;;;8.80;99.90;;;;;;5067346;28;20002;-66
2023/12/12 01:43:29;;;;;;;;;;;8.80;99.90;;;;;;5068611;28;19984;-67
2023/12/12 01:45:56;;;;;;;;;;;8.80;99.90;;;;;;5066207;28;19991;-67
2023/12/12 01:48:24;;;;;;;;;;;8.80;99.90;;;;;;5067404;28;19999;-68
2023/12/12 01:50:51;;;;;;;;;;;8.80;99.90;;;;;;5069383;28;19984;-67
2023/12/12 01:53:19;;;;;;;;;;;8.80;99.90;;;;;;5067280;28;20349;-67
2023/12/12 01:55:45;;;;;;;;;;;8.80;99.90;;;;;;5067028;28;20007;-66
2023/12/12 01:58:12;;;;;;;;;;;8.80;99.90;;;;;;5067617;28;19991;-68
2023/12/12 02:00:39;;;;;;;;;;;8.70;99.90;;;;;;5065079;28;19999;-68
2023/12/12 02:03:06;;;;;;;;;;;8.70;99.90;;;;;;5067983;28;20065;-67
2023/12/12 02:05:34;;;;;;;;;;;8.70;99.90;;;;;;5068280;28;19979;-66
2023/12/12 02:08:00;;;;;;;;;;;8.70;99.90;;;;;;5066215;28;19992;-68
2023/12/12 02:10:27;;;;;;;;;;;8.70;99.90;;;;;;5067537;28;19979;-67
2023/12/12 02:12:54;;;;;;;;;;;8.70;99.90;;;;;;5066349;28;19979;-68
2023/12/12 02:15:21;;;;;;;;;;;8.70;99.90;;;;;;5063053;28;19984;-68
2023/12/12 02:17:47;;;;;;;;;;;8.70;99.90;;;;;;5066885;28;19991;-66
2023/12/12 02:20:14;;;;;;;;;;;8.70;99.90;;;;;;5067444;28;19999;-66
2023/12/12 02:22:42;;;;;;;;;;;8.70;99.90;;;;;;5064720;28;19983;-68
2023/12/12 02:25:09;;;;;;;;;;;8.70;99.90;;;;;;5067265;28;20001;-67
2023/12/12 02:27:37;;;;;;;;;;;8.70;99.90;;;;;;5066618;28;20421;-67
2023/12/12 02:30:04;;;;;;;;;;;8.70;99.90;;;;;;5066895;28;19986;-68
2023/12/12 02:32:31;;;;;;;;;;;8.70;99.90;;;;;;5066343;28;20492;-67
2023/12/12 02:34:57;;;;;;;;;;;8.70;99.90;;;;;;5068905;28;19976;-68
2023/12/12 02:37:24;;;;;;;;;;;8.70;99.90;;;;;;5068515;28;20022;-67
2023/12/12 02:39:52;;;;;;;;;;;8.70;99.90;;;;;;5066305;28;20303;-67
2023/12/12 02:42:18;;;;;;;;;;;8.70;99.90;;;;;;5066030;28;20080;-67
2023/12/12 02:44:45;;;;;;;;;;;8.60;99.90;;;;;;5065291;28;19986;-66
2023/12/12 02:47:11;;;;;;;;;;;8.70;99.90;;;;;;5066403;28;20006;-67
2023/12/12 02:49:38;;;;;;;;;;;8.60;99.90;;;;;;5064874;28;19979;-67
2023/12/12 02:52:05;;;;;;;;;;;8.60;99.90;;;;;;5063367;28;19976;-68
2023/12/12 02:54:31;;;;;;;;;;;8.60;99.90;;;;;;5062371;28;20674;-67
2023/12/12 02:56:59;;;;;;;;;;;8.60;99.90;;;;;;5067385;28;19991;-68
2023/12/12 02:59:26;;;;;;;;;;;8.60;99.90;;;;;;5066159;28;19986;-66
2023/12/12 03:01:52;;;;;;;;;;;8.60;99.90;;;;;;5066880;28;19999;-67
2023/12/12 03:04:19;;;;;;;;;;;8.60;99.90;;;;;;5066907;28;20003;-67
2023/12/12 03:06:45;;;;;;;;;;;8.60;99.90;;;;;;5062701;28;19996;-66
2023/12/12 03:09:12;;;;;;;;;;;8.60;99.90;;;;;;5067579;28;19975;-67
2023/12/12 03:11:38;;;;;;;;;;;8.60;99.90;;;;;;5065920;28;19983;-68
2023/12/12 03:14:06;;;;;;;;;;;8.60;99.90;;;;;;5064124;28;19979;-67
2023/12/12 03:16:33;;;;;;;;;;;8.60;99.90;;;;;;5065937;28;20357;-66
2023/12/12 03:18:59;;;;;;;;;;;8.60;99.90;;;;;;5066986;28;19979;-68
2023/12/12 03:21:26;;;;;;;;;;;8.60;99.90;;;;;;5066669;28;19995;-67
2023/12/12 03:23:52;;;;;;;;;;;8.50;99.90;;;;;;5064932;28;19975;-67
2023/12/12 03:26:19;;;;;;;;;;;8.50;99.90;;;;;;5069446;28;19984;-66
2023/12/12 03:28:45;;;;;;;;;;;8.50;99.90;;;;;;5067473;28;20555;-68
2023/12/12 03:31:13;;;;;;;;;;;8.50;99.90;;;;;;5067244;28;20004;-68
2023/12/12 03:33:40;;;;;;;;;;;8.50;99.90;;;;;;5066827;28;19975;-67
2023/12/12 03:36:07;;;;;;;;;;;8.50;99.90;;;;;;5066545;28;19979;-68
2023/12/12 03:38:33;;;;;;;;;;;8.50;99.90;;;;;;5065463;28;20469;-68
2023/12/12 03:41:00;;;;;;;;;;;8.50;99.90;;;;;;5064994;28;20045;-66
2023/12/12 03:43:27;;;;;;;;;;;8.50;99.90;;;;;;5067113;28;20095;-67
2023/12/12 03:45:53;;;;;;;;;;;8.40;99.90;;;;;;5064655;28;20007;-67
2023/12/12 03:48:21;;;;;;;;;;;8.40;99.90;;;;;;5064841;28;19991;-67
2023/12/12 03:50:49;;;;;;;;;;;8.40;99.90;;;;;;5062267;28;19979;-67
2023/12/12 03:53:16;;;;;;;;;;;8.40;99.90;;;;;;5064206;28;20086;-67
2023/12/12 03:55:42;;;;;;;;;;;8.40;99.90;;;;;;5065025;28;20471;-68
2023/12/12 03:58:09;;;;;;;;;;;8.40;99.90;;;;;;5067719;28;19994;-67
2023/12/12 04:00:35;;;;;;;;;;;8.40;99.90;;;;;;5063034;28;19999;-67
2023/12/12 04:03:02;;;;;;;;;;;8.40;99.90;;;;;;5067011;28;19987;-67
2023/12/12 04:05:30;;;;;;;;;;;8.40;99.90;;;;;;5065434;28;20644;-68
2023/12/12 04:07:56;;;;;;;;;;;8.40;99.90;;;;;;5066942;28;20045;-67
2023/12/12 04:10:23;;;;;;;;;;;8.30;99.90;;;;;;5067260;28;19975;-67
2023/12/12 04:12:49;;;;;;;;;;;8.30;99.90;;;;;;5069790;28;20532;-67
2023/12/12 04:15:16;;;;;;;;;;;8.30;99.90;;;;;;5061009;28;19979;-67
2023/12/12 04:17:43;;;;;;;;;;;8.30;99.90;;;;;;5066578;28;19992;-67
2023/12/12 04:20:10;;;;;;;;;;;8.30;99.90;;;;;;5064931;28;20396;-67
2023/12/12 04:22:38;;;;;;;;;;;8.30;99.90;;;;;;5065878;28;20021;-69
2023/12/12 04:25:05;;;;;;;;;;;8.30;99.90;;;;;;5067065;28;19979;-67
2023/12/12 04:27:32;;;;;;;;;;;8.30;99.90;;;;;;5066108;28;19995;-67
2023/12/12 04:29:58;;;;;;;;;;;8.30;99.90;;;;;;5065440;28;19979;-67
2023/12/12 04:32:25;;;;;;;;;;;8.30;99.90;;;;;;5064867;28;19995;-67
2023/12/12 04:34:51;;;;;;;;;;;8.30;99.90;;;;;;5067886;28;19982;-68
2023/12/12 04:37:18;;;;;;;;;;;8.30;99.90;;;;;;5064514;28;20084;-68
2023/12/12 04:39:46;;;;;;;;;;;8.30;99.90;;;;;;5065297;28;20028;-68
2023/12/12 04:42:13;;;;;;;;;;;8.30;99.90;;;;;;5065849;28;20036;-67
2023/12/12 04:44:41;;;;;;;;;;;8.20;99.90;;;;;;5063422;28;20072;-66
2023/12/12 04:47:07;;;;;;;;;;;8.20;99.90;;;;;;5064044;28;20373;-68
2023/12/12 04:49:34;;;;;;;;;;;8.20;99.90;;;;;;5064604;28;20508;-67
2023/12/12 04:52:01;;;;;;;;;;;8.20;99.90;;;;;;5065409;28;19980;-68
2023/12/12 04:54:28;;;;;;;;;;;8.20;99.90;;;;;;5068378;28;20112;-68
2023/12/12 04:56:56;;;;;;;;;;;8.20;99.90;;;;;;5066207;28;19991;-66
2023/12/12 04:59:23;;;;;;;;;;;8.20;99.90;;;;;;5062495;28;19991;-68
2023/12/12 05:01:50;;;;;;;;;;;8.20;99.90;;;;;;5065522;28;20661;-68
2023/12/12 05:04:16;;;;;;;;;;;8.30;99.90;;;;;;5065355;28;19986;-67
2023/12/12 05:06:43;;;;;;;;;;;8.20;99.90;;;;;;5063099;28;19998;-67
2023/12/12 05:09:10;;;;;;;;;;;8.20;99.90;;;;;;5066667;28;20032;-68
2023/12/12 05:11:37;;;;;;;;;;;8.20;99.90;;;;;;5064909;28;19982;-67
2023/12/12 05:14:06;;;;;;;;;;;8.20;99.90;;;;;;5063096;28;20070;-67
2023/12/12 05:16:32;;;;;;;;;;;8.20;99.90;;;;;;5062691;28;19995;-67
2023/12/12 05:18:59;;;;;;;;;;;8.20;99.90;;;;;;5066599;28;20030;-67
2023/12/12 05:21:26;;;;;;;;;;;8.20;99.90;;;;;;5064131;28;20045;-67
2023/12/12 05:23:52;;;;;;;;;;;8.20;99.90;;;;;;5063484;28;19980;-66
2023/12/12 05:26:19;;;;;;;;;;;8.20;99.90;;;;;;5062988;28;19987;-67
2023/12/12 05:28:46;;;;;;;;;;;8.20;99.90;;;;;;5066277;28;20030;-67
2023/12/12 05:31:14;;;;;;;;;;;8.20;99.90;;;;;;5062845;28;20000;-67
2023/12/12 05:33:41;;;;;;;;;;;8.20;99.90;;;;;;5063261;28;19979;-66
2023/12/12 05:36:07;;;;;;;;;;;8.20;99.90;;;;;;5069928;28;19979;-66
2023/12/12 05:38:34;;;;;;;;;;;8.10;99.90;;;;;;5066327;28;19995;-67
2023/12/12 05:41:01;;;;;;;;;;;8.20;99.90;;;;;;5068830;28;20033;-68
2023/12/12 05:43:27;;;;;;;;;;;8.20;99.90;;;;;;5068756;28;19979;-69
2023/12/12 05:45:54;;;;;;;;;;;8.20;99.90;;;;;;5067408;28;19998;-67
2023/12/12 05:48:22;;;;;;;;;;;8.20;99.90;;;;;;5065867;28;20449;-67
2023/12/12 05:50:49;;;;;;;;;;;8.20;99.90;;;;;;5065647;28;19975;-68
2023/12/12 05:53:15;;;;;;;;;;;8.20;99.90;;;;;;5067227;28;20513;-67
2023/12/12 05:55:42;;;;;;;;;;;8.20;99.90;;;;;;5065405;28;19979;-67
2023/12/12 05:58:08;;;;;;;;;;;8.20;99.90;;;;;;5065325;28;20002;-68
2023/12/12 06:00:35;;;;;;;;;;;8.20;99.90;;;;;;5066448;28;19995;-67
2023/12/12 06:03:02;;;;;;;;;;;8.20;99.90;;;;;;5068693;28;20034;-67
2023/12/12 06:05:30;;;;;;;;;;;8.20;99.90;;;;;;5067989;28;20015;-67
2023/12/12 06:07:57;;;;;;;;;;;8.20;99.90;;;;;;5066268;28;19991;-67
2023/12/12 06:10:23;;;;;;;;;;;8.20;99.90;;;;;;5066714;28;19979;-67
2023/12/12 06:12:50;;;;;;;;;;;8.20;99.90;;;;;;5068072;28;19992;-68
2023/12/12 06:15:16;;;;;;;;;;;8.20;99.90;;;;;;5064579;28;19983;-67
2023/12/12 06:17:43;;;;;;;;;;;8.10;99.90;;;;;;5066621;28;19995;-67
2023/12/12 06:20:10;;;;;;;;;;;8.20;99.90;;;;;;5067627;28;19980;-67
2023/12/12 06:22:38;;;;;;;;;;;8.20;99.90;;;;;;5068993;28;20085;-67
2023/12/12 06:25:06;;;;;;;;;;;8.10;99.90;;;;;;5065742;28;20425;-67
2023/12/12 06:27:32;;;;;;;;;;;8.20;99.90;;;;;;5067581;28;19991;-67
2023/12/12 06:29:59;;;;;;;;;;;8.20;99.90;;;;;;5065844;28;19975;-67
2023/12/12 06:32:25;;;;;;;;;;;8.20;99.90;;;;;;5067195;28;19999;-67
2023/12/12 06:34:52;;;;;;;;;;;8.20;99.90;;;;;;5068576;28;20838;-67
2023/12/12 06:37:18;;;;;;;;;;;8.20;99.90;;;;;;5066854;28;19996;-68
2023/12/12 06:39:46;;;;;;;;;;;8.20;99.90;;;;;;5065136;28;19971;-67
2023/12/12 06:42:13;;;;;;;;;;;8.20;99.90;;;;;;5067304;28;19996;-67
2023/12/12 06:44:40;;;;;;;;;;;8.20;99.90;;;;;;5065452;28;20003;-66
2023/12/12 06:47:06;;;;;;;;;;;8.10;99.90;;;;;;5066267;28;20354;-68
2023/12/12 06:49:33;;;;;;;;;;;8.20;99.90;;;;;;5066400;28;20041;-67
2023/12/12 06:52:01;;;;;;;;;;;8.20;99.90;;;;;;5066240;28;19976;-67
2023/12/12 06:54:28;;;;;;;;;;;8.20;99.90;;;;;;5067449;28;19980;-67
2023/12/12 06:56:56;;;;;;;;;;;8.20;99.90;;;;;;5068188;28;20869;-68
2023/12/12 06:59:23;;;;;;;;;;;8.20;99.90;;;;;;5064815;28;20646;-67
2023/12/12 07:01:51;;;;;;;;;;;8.20;99.90;;;;;;5063255;28;20056;-68
2023/12/12 07:04:17;;;;;;;;;;;8.20;99.90;;;;;;5069391;28;20026;-66
2023/12/12 07:06:44;;;;;;;;;;;8.10;99.90;;;;;;5067451;28;20072;-67
2023/12/12 07:09:12;;;;;;;;;;;8.20;99.90;;;;;;5065281;28;20595;-67
2023/12/12 07:11:39;;;;;;;;;;;8.20;99.90;;;;;;5067054;28;19981;-67
2023/12/12 07:14:07;;;;;;;;;;;8.10;99.90;;;;;;5063411;28;19975;-66
2023/12/12 07:16:33;;;;;;;;;;;8.10;99.90;;;;;;5064896;28;19995;-66
2023/12/12 07:19:00;;;;;;;;;;;8.10;99.90;;;;;;5065706;28;20022;-67
2023/12/12 07:21:26;;;;;;;;;;;8.10;99.90;;;;;;5064608;28;20002;-68
2023/12/12 07:23:53;;;;;;;;;;;8.20;99.90;;;;;;5065347;28;19983;-67
2023/12/12 07:26:21;;;;;;;;;;;8.20;99.90;;;;;;5066784;28;20016;-67
2023/12/12 07:28:47;;;;;;;;;;;8.20;99.90;;;;;;5064358;28;19979;-68
2023/12/12 07:31:15;;;;;;;;;;;8.10;99.90;;;;;;5066147;28;20005;-67
2023/12/12 07:33:42;;;;;;;;;;;8.20;99.90;;;;;;5064565;28;20078;-67
2023/12/12 07:36:08;;;;;;;;;;;8.20;99.90;;;;;;5066942;28;19989;-67
2023/12/12 07:38:35;;;;;;;;;;;8.20;99.90;;;;;;5063901;28;20013;-67
2023/12/12 07:41:01;;;;;;;;;;;8.20;99.90;;;;;;5065665;28;19995;-67
2023/12/12 07:43:28;;;;;;;;;;;8.10;99.90;;;;;;5064683;28;19979;-67
2023/12/12 07:45:54;;;;;;;;;;;8.10;99.90;;;;;;5062424;28;19998;-66
2023/12/12 07:48:22;;;;;;;;;;;8.20;99.90;;;;;;5065298;28;20000;-66
2023/12/12 07:50:49;;;;;;;;;;;8.10;99.90;;;;;;5063821;28;20361;-67
2023/12/12 07:53:15;;;;;;;;;;;8.20;99.90;;;;;;5064385;28;19979;-67
2023/12/12 07:55:42;;;;;;;;;;;8.10;99.90;;;;;;5064299;28;20002;-68
2023/12/12 07:58:09;;;;;;;;;;;8.10;99.90;;;;;;5061748;28;20699;-67
2023/12/12 08:00:35;;;;;;;;;;;8.20;99.90;;;;;;5064453;28;19995;-67
2023/12/12 08:03:03;;;;;;;;;;;8.20;99.90;;;;;;5064230;28;19995;-67
2023/12/12 08:05:31;;;;;;;;;;;8.20;99.90;;;;;;5066707;28;19983;-67
2023/12/12 08:08:01;;;;;;;;;;;8.20;99.90;;;;;;5065044;28;19999;-67
2023/12/12 08:10:28;;;;;;;;;;;8.10;99.90;;;;;;5066121;28;19979;-67
2023/12/12 08:12:54;;;;;;;;;;;8.20;99.90;;;;;;5065883;28;20079;-68
2023/12/12 08:15:21;;;;;;;;;;;8.10;99.90;;;;;;5063190;28;20042;-67
2023/12/12 08:17:47;;;;;;;;;;;8.20;99.90;;;;;;5066499;28;19991;-66
2023/12/12 08:20:14;;;;;;;;;;;8.20;99.90;;;;;;5064582;28;20400;-68
2023/12/12 08:22:42;;;;;;;;;;;8.20;99.90;;;;;;5065737;28;20005;-66
2023/12/12 08:25:09;;;;;;;;;;;8.10;99.90;;;;;;5064136;28;20454;-66
2023/12/12 08:27:37;;;;;;;;;;;8.20;99.90;;;;;;5064936;28;20014;-66
2023/12/12 08:30:04;;;;;;;;;;;8.20;99.90;;;;;;5065407;28;19980;-66
2023/12/12 08:32:31;;;;;;;;;;;8.20;99.90;;;;;;5064859;28;20002;-68
2023/12/12 08:34:57;;;;;;;;;;;8.20;99.90;;;;;;5065965;28;20074;-67
2023/12/12 08:37:24;;;;;;;;;;;8.20;99.90;;;;;;5062142;28;20003;-67
2023/12/12 08:39:51;;;;;;;;;;;8.20;99.90;;;;;;5065137;28;20404;-67
2023/12/12 08:42:18;;;;;;;;;;;8.20;99.90;;;;;;5064148;28;19996;-67
2023/12/12 08:44:44;;;;;;;;;;;8.20;99.90;;;;;;5063702;28;19984;-67
2023/12/12 08:47:10;;;;;;;;;;;8.20;99.90;;;;;;5064120;28;19991;-67
2023/12/12 08:49:38;;;;;;;;;;;8.20;99.90;;;;;;5062388;28;20445;-68
2023/12/12 08:52:05;;;;;;;;;;;8.20;99.90;;;;;;5063275;28;19976;-67
2023/12/12 08:54:32;;;;;;;;;;;8.20;99.90;;;;;;5062085;28;19975;-68
2023/12/12 08:57:02;;;;;;;;;;;8.20;99.90;;;;;;5062840;28;20017;-66
2023/12/12 08:59:28;;;;;;;;;;;8.20;99.90;;;;;;5060737;28;20070;-67
2023/12/12 09:01:55;;;;;;;;;;;8.20;99.90;;;;;;5064836;28;20356;-68
2023/12/12 09:04:22;;;;;;;;;;;8.20;99.90;;;;;;5065316;28;20057;-67
2023/12/12 09:06:48;;;;;;;;;;;8.20;99.90;;;;;;5065255;28;19995;-67
2023/12/12 09:09:15;;;;;;;;;;;8.20;99.90;;;;;;5067505;28;19990;-66
2023/12/12 09:11:42;;;;;;;;;;;8.20;99.90;;;;;;5067668;28;20023;-67
2023/12/12 09:14:10;;;;;;;;;;;8.20;99.90;;;;;;5066032;28;19987;-66
2023/12/12 09:16:36;;;;;;;;;;;8.20;99.90;;;;;;5067304;28;19996;-67
2023/12/12 09:19:03;;;;;;;;;;;8.30;99.90;;;;;;5069041;28;19975;-66
2023/12/12 09:21:29;;;;;;;;;;;8.30;99.90;;;;;;5067752;28;19979;-66
2023/12/12 09:23:56;;;;;;;;;;;8.30;99.90;;;;;;5069588;28;19971;-66
2023/12/12 09:26:22;;;;;;;;;;;8.30;99.90;;;;;;5068268;28;20444;-67
2023/12/12 09:28:49;;;;;;;;;;;8.30;99.90;;;;;;5067566;28;19975;-67
2023/12/12 09:31:24;;;;;;;;;;;8.30;99.90;;;;;;5069287;28;19999;-67
2023/12/12 09:33:51;;;;;;;;;;;8.30;99.90;;;;;;5065521;28;20346;-68
2023/12/12 09:36:17;;;;;;;;;;;8.30;99.90;;;;;;5067774;28;19987;-67
2023/12/12 09:38:44;;;;;;;;;;;8.30;99.90;;;;;;5068445;28;19995;-67
2023/12/12 09:41:16;;;;;;;;;;;8.30;99.90;;;;;;5069591;28;19983;-68
2023/12/12 09:43:42;;;;;;;;;;;8.30;99.90;;;;;;5066397;28;19998;-67
2023/12/12 09:46:09;;;;;;;;;;;8.30;99.90;;;;;;5067339;28;19998;-67
2023/12/12 09:48:38;;;;;;;;;;;8.30;99.90;;;;;;5066277;28;20002;-68
2023/12/12 09:51:06;;;;;;;;;;;8.30;99.90;;;;;;5066541;28;20054;-67
2023/12/12 09:53:35;;;;;;;;;;;8.30;99.90;;;;;;5066522;28;19980;-66
2023/12/12 09:56:02;;;;;;;;;;;8.30;99.90;;;;;;5067820;28;19998;-67
2023/12/12 09:58:29;;;;;;;;;;;8.30;99.90;;;;;;5067329;28;20046;-67
2023/12/12 10:00:56;;;;;;;;;;;8.40;99.90;;;;;;5068553;28;20102;-68
2023/12/12 10:03:23;;;;;;;;;;;8.40;99.90;;;;;;5067130;28;20018;-67
2023/12/12 10:05:53;;;;;;;;;;;8.40;99.90;;;;;;5069546;28;19975;-68
2023/12/12 10:08:20;;;;;;;;;;;8.40;99.90;;;;;;5065438;28;20003;-67
2023/12/12 10:10:46;;;;;;;;;;;8.40;99.90;;;;;;5068292;28;19983;-66
2023/12/12 10:13:13;;;;;;;;;;;8.40;99.90;;;;;;5068085;28;20243;-66
2023/12/12 10:15:41;;;;;;;;;;;8.40;99.90;;;;;;5064787;28;20033;-67
2023/12/12 10:18:07;;;;;;;;;;;8.40;99.90;;;;;;5068357;28;19995;-67
2023/12/12 10:20:35;;;;;;;;;;;8.40;99.90;;;;;;5066742;28;20009;-67
2023/12/12 10:23:04;;;;;;;;;;;8.40;99.90;;;;;;5067314;28;20468;-67
2023/12/12 10:25:31;;;;;;;;;;;8.40;99.90;;;;;;5066107;28;20495;-68
2023/12/12 10:27:58;;;;;;;;;;;8.40;99.90;;;;;;5068972;28;20353;-67
2023/12/12 10:30:25;;;;;;;;;;;8.40;99.90;;;;;;5065725;28;20007;-67
2023/12/12 10:32:53;;;;;;;;;;;8.40;99.90;;;;;;5066941;28;19980;-68
2023/12/12 10:35:20;;;;;;;;;;;8.40;99.90;;;;;;5067961;28;19984;-68
2023/12/12 10:37:46;;;;;;;;;;;8.40;99.90;;;;;;5064944;28;20380;-66
2023/12/12 10:40:15;;;;;;;;;;;8.50;99.90;;;;;;5068284;28;20492;-67
2023/12/12 10:42:42;;;;;;;;;;;8.50;99.90;;;;;;5067211;28;19992;-68
2023/12/12 10:45:11;;;;;;;;;;;8.40;99.90;;;;;;5063356;28;20058;-68
2023/12/12 10:47:40;;;;;;;;;;;8.50;99.90;;;;;;5065556;28;19991;-67
2023/12/12 10:50:10;;;;;;;;;;;8.40;99.90;;;;;;5064741;28;20011;-67
2023/12/12 10:52:38;;;;;;;;;;;8.50;99.90;;;;;;5063872;28;20040;-66
2023/12/12 10:55:05;;;;;;;;;;;8.50;99.90;;;;;;5067893;28;19971;-66
2023/12/12 10:57:33;;;;;;;;;;;8.50;99.90;;;;;;5066234;28;19995;-66
2023/12/12 11:00:01;;;;;;;;;;;8.50;99.90;;;;;;5066651;28;19980;-67
2023/12/12 11:02:27;;;;;;;;;;;8.50;99.90;;;;;;5067356;28;20411;-67
2023/12/12 11:04:55;;;;;;;;;;;8.50;99.90;;;;;;5066412;28;19975;-68
2023/12/12 11:07:21;;;;;;;;;;;8.50;99.90;;;;;;5063876;28;19991;-68
2023/12/12 11:09:48;;;;;;;;;;;8.50;99.90;;;;;;5064819;28;19979;-66
2023/12/12 11:12:15;;;;;;;;;;;8.50;99.90;;;;;;5066989;28;20509;-68
2023/12/12 11:14:43;;;;;;;;;;;8.50;99.90;;;;;;5063034;28;19979;-67
2023/12/12 11:17:10;;;;;;;;;;;8.50;99.90;;;;;;5066313;28;19999;-68
2023/12/12 11:19:37;;;;;;;;;;;8.50;99.90;;;;;;5064937;28;20074;-67
2023/12/12 11:22:04;;;;;;;;;;;8.50;99.90;;;;;;5067145;28;19983;-67
2023/12/12 11:24:58;;;;;;;;;;;8.50;99.90;;;;;;5060963;28;20030;-67
2023/12/12 11:27:24;;;;;;;;;;;8.50;99.90;;;;;;5065440;28;19995;-67
2023/12/12 11:29:55;;;;;;;;;;;8.50;99.90;;;;;;5063291;28;19980;-67
2023/12/12 11:32:24;;;;;;;;;;;8.50;99.90;;;;;;5065173;28;19995;-67
2023/12/12 11:34:51;;;;;;;;;;;8.60;99.90;;;;;;5066554;28;20460;-67
2023/12/12 11:37:18;;;;;;;;;;;8.60;99.90;;;;;;5065939;28;20002;-68
2023/12/12 11:39:49;;;;;;;;;;;8.60;99.90;;;;;;5067397;28;19979;-67
2023/12/12 11:42:20;;;;;;;;;;;8.60;99.90;;;;;;5065468;28;19995;-67
2023/12/12 11:44:49;;;;;;;;;;;8.60;99.90;;;;;;5063722;28;20380;-67
2023/12/12 11:47:17;;;;;;;;;;;8.50;99.90;;;;;;5066004;28;20003;-68
2023/12/12 11:49:44;;;;;;;;;;;8.60;99.90;;;;;;5065767;28;19976;-67
2023/12/12 11:52:11;;;;;;;;;;;8.50;99.90;;;;;;5062733;28;20071;-67
2023/12/12 11:54:38;;;;;;;;;;;8.60;99.90;;;;;;5065555;28;20003;-67
2023/12/12 11:57:05;;;;;;;;;;;8.60;99.90;;;;;;5066690;28;20034;-67
2023/12/12 11:59:32;;;;;;;;;;;8.50;99.90;;;;;;5063592;28;19980;-67
2023/12/12 12:01:59;;;;;;;;;;;8.60;99.90;;;;;;5064867;28;19992;-67
2023/12/12 12:04:27;;;;;;;;;;;8.60;99.90;;;;;;5067132;28;20562;-67
2023/12/12 12:06:54;;;;;;;;;;;8.60;99.90;;;;;;5063612;28;19995;-67
2023/12/12 12:09:20;;;;;;;;;;;8.60;99.90;;;;;;5065650;28;19982;-67
2023/12/12 12:11:48;;;;;;;;;;;8.60;99.90;;;;;;5064442;28;19987;-67
2023/12/12 12:14:15;;;;;;;;;;;8.60;99.90;;;;;;5063508;28;21389;-67
2023/12/12 12:16:42;;;;;;;;;;;8.60;99.90;;;;;;5064398;28;20002;-68
2023/12/12 12:19:30;;;;;;;;;;;8.60;99.90;;;;;;5064621;28;19982;-68
2023/12/12 12:22:01;;;;;;;;;;;8.60;99.90;;;;;;5066536;28;20693;-68
2023/12/12 12:24:27;;;;;;;;;;;8.60;99.90;;;;;;5061484;28;19996;-68
2023/12/12 12:26:54;;;;;;;;;;;8.60;99.90;;;;;;5066456;28;20255;-67
2023/12/12 12:29:21;;;;;;;;;;;8.60;99.90;;;;;;5063630;28;20036;-68
2023/12/12 12:31:47;;;;;;;;;;;8.60;99.90;;;;;;5061260;28;19999;-67
2023/12/12 12:34:17;;;;;;;;;;;8.60;99.90;;;;;;5064806;28;19983;-67
2023/12/12 12:36:46;;;;;;;;;;;8.60;99.90;;;;;;5064590;28;20098;-67
2023/12/12 12:39:13;;;;;;;;;;;8.60;99.90;;;;;;5065883;28;20066;-67
2023/12/12 12:41:40;;;;;;;;;;;8.60;99.90;;;;;;5063690;28;19986;-67
2023/12/12 12:44:07;;;;;;;;;;;8.60;99.90;;;;;;5066762;28;20054;-67
2023/12/12 12:46:33;;;;;;;;;;;8.60;99.90;;;;;;5068605;28;20045;-67
2023/12/12 12:49:00;;;;;;;;;;;8.60;99.90;;;;;;5068089;28;19988;-68
2023/12/12 12:51:26;;;;;;;;;;;8.60;99.90;;;;;;5068285;28;19987;-66
2023/12/12 12:53:55;;;;;;;;;;;8.60;99.90;;;;;;5066770;28;19979;-68
2023/12/12 12:56:22;;;;;;;;;;;8.70;99.90;;;;;;5067946;28;20086;-68
2023/12/12 12:58:48;;;;;;;;;;;8.70;99.90;;;;;;5066485;28;20353;-68
2023/12/12 13:01:15;;;;;;;;;;;8.70;99.90;;;;;;5070706;28;19999;-68
2023/12/12 13:03:41;;;;;;;;;;;8.70;99.90;;;;;;5068780;28;20037;-68
2023/12/12 13:06:08;;;;;;;;;;;8.70;99.90;;;;;;5070886;28;19975;-67
2023/12/12 13:08:34;;;;;;;;;;;8.60;99.90;;;;;;5067262;28;20045;-68
2023/12/12 13:11:02;;;;;;;;;;;8.70;99.90;;;;;;5071902;28;19979;-67
2023/12/12 13:13:29;;;;;;;;;;;8.60;99.90;;;;;;5068020;28;20082;-67
2023/12/12 13:15:55;;;;;;;;;;;8.70;99.90;;;;;;5065231;28;20000;-67
2023/12/12 13:18:22;;;;;;;;;;;8.70;99.90;;;;;;5066986;28;19999;-69
2023/12/12 13:20:48;;;;;;;;;;;8.70;99.90;;;;;;5067359;28;19979;-67
2023/12/12 13:23:15;;;;;;;;;;;8.70;99.90;;;;;;5070663;28;19999;-68
2023/12/12 13:25:42;;;;;;;;;;;8.70;99.90;;;;;;5068598;28;19986;-68
2023/12/12 13:28:09;;;;;;;;;;;8.70;99.90;;;;;;5068170;28;19991;-68
2023/12/12 13:30:36;;;;;;;;;;;8.70;99.90;;;;;;5065279;28;19995;-67
2023/12/12 13:33:05;;;;;;;;;;;8.70;99.90;;;;;;5072716;28;19983;-67
2023/12/12 13:35:32;;;;;;;;;;;8.70;99.90;;;;;;5070184;28;20067;-67
2023/12/12 13:37:58;;;;;;;;;;;8.70;99.90;;;;;;5070197;28;20364;-68
2023/12/12 13:40:25;;;;;;;;;;;8.70;99.90;;;;;;5065190;28;20025;-67
2023/12/12 13:42:52;;;;;;;;;;;8.70;99.90;;;;;;5071362;28;19979;-68
2023/12/12 13:45:19;;;;;;;;;;;8.80;99.90;;;;;;5067074;28;19980;-67
2023/12/12 13:47:46;;;;;;;;;;;8.80;99.90;;;;;;5068383;28;19999;-68
2023/12/12 13:50:12;;;;;;;;;;;8.80;99.90;;;;;;5067733;28;20387;-68
2023/12/12 13:52:39;;;;;;;;;;;8.80;99.90;;;;;;5068481;28;19980;-67
2023/12/12 13:55:06;;;;;;;;;;;8.80;99.90;;;;;;5069677;28;20041;-67
2023/12/12 13:57:33;;;;;;;;;;;8.80;99.90;;;;;;5068956;28;20082;-68
2023/12/12 13:59:59;;;;;;;;;;;8.80;99.90;;;;;;5071456;28;19975;-67
2023/12/12 14:02:27;;;;;;;;;;;8.90;99.90;;;;;;5065871;28;20027;-67
2023/12/12 14:04:53;;;;;;;;;;;8.80;99.90;;;;;;5066121;28;19998;-68
2023/12/12 14:07:21;;;;;;;;;;;8.90;99.90;;;;;;5064524;28;19999;-68
2023/12/12 14:09:48;;;;;;;;;;;8.90;99.90;;;;;;5065267;28;19979;-67
2023/12/12 14:12:14;;;;;;;;;;;8.90;99.90;;;;;;5065803;28;19991;-67
2023/12/12 14:14:41;;;;;;;;;;;8.90;99.90;;;;;;5064189;28;19983;-68
2023/12/12 14:17:07;;;;;;;;;;;8.90;99.90;;;;;;5065924;28;20085;-68
2023/12/12 14:19:35;;;;;;;;;;;9.00;99.90;;;;;;5066934;28;19979;-67
2023/12/12 14:22:02;;;;;;;;;;;9.00;99.90;;;;;;5067861;28;20506;-66
2023/12/12 14:24:30;;;;;;;;;;;9.00;99.90;;;;;;5065727;28;20433;-67
2023/12/12 14:26:56;;;;;;;;;;;9.00;99.90;;;;;;5066600;28;19995;-68
2023/12/12 14:29:25;;;;;;;;;;;9.00;99.90;;;;;;5065864;28;19983;-68